sensor_id;sensor_type;location;lat;lon;timestamp;pressure;altitude;pressure_sealevel;temperature;humidity
24558;BME280;12726;49.148;8.582;2024-01-10T00:02:10;101432.34;;;-5.35;73.34
24558;BME280;12726;49.148;8.582;2024-01-10T00:04:56;101425.97;;;-5.31;72.56
24558;BME280;12726;49.148;8.582;2024-01-10T00:07:43;101426.56;;;-5.26;72.06
24558;BME280;12726;49.148;8.582;2024-01-10T00:10:28;101421.06;;;-5.21;72.23
24558;BME280;12726;49.148;8.582;2024-01-10T00:13:13;101421.00;;;-5.20;72.04
24558;BME280;12726;49.148;8.582;2024-01-10T00:15:59;101423.50;;;-5.18;71.90
24558;BME280;12726;49.148;8.582;2024-01-10T00:18:44;101418.19;;;-5.17;71.92
24558;BME280;12726;49.148;8.582;2024-01-10T00:21:30;101419.09;;;-5.18;72.03
24558;BME280;12726;49.148;8.582;2024-01-10T00:24:17;101420.72;;;-5.15;72.46
24558;BME280;12726;49.148;8.582;2024-01-10T00:27:02;101418.00;;;-5.14;71.49
24558;BME280;12726;49.148;8.582;2024-01-10T00:29:49;101420.44;;;-5.10;72.50
24558;BME280;12726;49.148;8.582;2024-01-10T00:32:35;101414.28;;;-5.09;72.21
24558;BME280;12726;49.148;8.582;2024-01-10T00:35:20;101413.34;;;-5.08;72.23
24558;BME280;12726;49.148;8.582;2024-01-10T00:38:06;101412.41;;;-5.07;72.24
24558;BME280;12726;49.148;8.582;2024-01-10T00:40:53;101414.19;;;-5.08;72.52
24558;BME280;12726;49.148;8.582;2024-01-10T00:43:38;101410.63;;;-5.07;73.11
24558;BME280;12726;49.148;8.582;2024-01-10T00:46:23;101405.28;;;-5.05;73.65
24558;BME280;12726;49.148;8.582;2024-01-10T00:49:09;101400.78;;;-5.03;74.03
24558;BME280;12726;49.148;8.582;2024-01-10T00:51:54;101413.81;;;-5.02;74.47
24558;BME280;12726;49.148;8.582;2024-01-10T00:54:39;101410.34;;;-5.02;75.09
24558;BME280;12726;49.148;8.582;2024-01-10T00:57:26;101413.81;;;-5.02;75.08
24558;BME280;12726;49.148;8.582;2024-01-10T01:00:12;101421.72;;;-5.02;76.07
24558;BME280;12726;49.148;8.582;2024-01-10T01:02:58;101425.25;;;-5.03;76.79
24558;BME280;12726;49.148;8.582;2024-01-10T01:05:43;101413.19;;;-5.05;77.34
24558;BME280;12726;49.148;8.582;2024-01-10T01:08:29;101412.41;;;-5.07;77.24
24558;BME280;12726;49.148;8.582;2024-01-10T01:11:14;101400.28;;;-5.10;77.77
24558;BME280;12726;49.148;8.582;2024-01-10T01:14:01;101409.94;;;-5.10;78.21
24558;BME280;12726;49.148;8.582;2024-01-10T01:16:46;101410.78;;;-5.10;77.87
24558;BME280;12726;49.148;8.582;2024-01-10T01:19:32;101411.72;;;-5.11;77.87
24558;BME280;12726;49.148;8.582;2024-01-10T01:22:17;101420.44;;;-5.10;78.02
24558;BME280;12726;49.148;8.582;2024-01-10T01:25:03;101422.22;;;-5.11;78.54
24558;BME280;12726;49.148;8.582;2024-01-10T01:27:49;101421.41;;;-5.11;77.90
24558;BME280;12726;49.148;8.582;2024-01-10T01:30:36;101418.78;;;-5.11;78.67
24558;BME280;12726;49.148;8.582;2024-01-10T01:33:23;101425.69;;;-5.10;78.13
24558;BME280;12726;49.148;8.582;2024-01-10T01:36:08;101423.91;;;-5.10;78.34
24558;BME280;12726;49.148;8.582;2024-01-10T01:38:53;101426.47;;;-5.08;77.45
24558;BME280;12726;49.148;8.582;2024-01-10T01:41:39;101428.09;;;-5.06;77.69
24558;BME280;12726;49.148;8.582;2024-01-10T01:44:24;101432.28;;;-5.03;77.86
24558;BME280;12726;49.148;8.582;2024-01-10T01:47:11;101427.88;;;-5.03;77.55
24558;BME280;12726;49.148;8.582;2024-01-10T01:49:56;101425.94;;;-4.99;77.38
24558;BME280;12726;49.148;8.582;2024-01-10T01:52:43;101418.97;;;-4.85;75.36
24558;BME280;12726;49.148;8.582;2024-01-10T01:55:28;101418.13;;;-4.85;74.53
24558;BME280;12726;49.148;8.582;2024-01-10T01:58:14;101416.34;;;-4.85;73.76
24558;BME280;12726;49.148;8.582;2024-01-10T02:00:59;101409.19;;;-4.83;72.91
24558;BME280;12726;49.148;8.582;2024-01-10T02:03:47;101413.44;;;-4.80;73.22
24558;BME280;12726;49.148;8.582;2024-01-10T02:06:32;101407.25;;;-4.79;72.67
24558;BME280;12726;49.148;8.582;2024-01-10T02:09:18;101407.16;;;-4.78;72.94
24558;BME280;12726;49.148;8.582;2024-01-10T02:12:04;101399.19;;;-4.76;72.60
24558;BME280;12726;49.148;8.582;2024-01-10T02:14:49;101400.88;;;-4.75;71.90
24558;BME280;12726;49.148;8.582;2024-01-10T02:17:35;101399.84;;;-4.72;71.68
24558;BME280;12726;49.148;8.582;2024-01-10T02:20:22;101405.03;;;-4.71;71.08
24558;BME280;12726;49.148;8.582;2024-01-10T02:23:07;101397.97;;;-4.70;70.76
24558;BME280;12726;49.148;8.582;2024-01-10T02:25:54;101395.84;;;-4.64;69.31
24558;BME280;12726;49.148;8.582;2024-01-10T02:28:39;101390.50;;;-4.62;68.85
24558;BME280;12726;49.148;8.582;2024-01-10T02:31:25;101381.78;;;-4.63;68.66
24558;BME280;12726;49.148;8.582;2024-01-10T02:34:11;101386.09;;;-4.62;69.36
24558;BME280;12726;49.148;8.582;2024-01-10T02:36:56;101385.88;;;-4.59;69.12
24558;BME280;12726;49.148;8.582;2024-01-10T02:39:42;101385.88;;;-4.59;69.23
24558;BME280;12726;49.148;8.582;2024-01-10T02:42:29;101376.06;;;-4.55;68.73
24558;BME280;12726;49.148;8.582;2024-01-10T02:45:14;101383.81;;;-4.54;69.30
24558;BME280;12726;49.148;8.582;2024-01-10T02:47:59;101374.16;;;-4.53;69.01
24558;BME280;12726;49.148;8.582;2024-01-10T02:50:45;101372.28;;;-4.51;68.94
24558;BME280;12726;49.148;8.582;2024-01-10T02:53:30;101365.25;;;-4.51;68.92
24558;BME280;12726;49.148;8.582;2024-01-10T02:56:16;101372.22;;;-4.50;69.18
24558;BME280;12726;49.148;8.582;2024-01-10T02:59:02;101364.31;;;-4.50;69.72
24558;BME280;12726;49.148;8.582;2024-01-10T03:01:48;101356.44;;;-4.50;69.51
24558;BME280;12726;49.148;8.582;2024-01-10T03:04:33;101360.75;;;-4.49;67.96
24558;BME280;12726;49.148;8.582;2024-01-10T03:07:19;101345.00;;;-4.49;68.78
24558;BME280;12726;49.148;8.582;2024-01-10T03:10:07;101356.44;;;-4.50;68.78
24558;BME280;12726;49.148;8.582;2024-01-10T03:12:53;101355.59;;;-4.50;68.06
24558;BME280;12726;49.148;8.582;2024-01-10T03:15:40;101354.75;;;-4.51;68.45
24558;BME280;12726;49.148;8.582;2024-01-10T03:18:25;101355.75;;;-4.53;68.17
24558;BME280;12726;49.148;8.582;2024-01-10T03:21:10;101349.50;;;-4.51;67.07
24558;BME280;12726;49.148;8.582;2024-01-10T03:23:56;101360.00;;;-4.51;67.13
24558;BME280;12726;49.148;8.582;2024-01-10T03:26:43;101356.69;;;-4.54;67.32
24558;BME280;12726;49.148;8.582;2024-01-10T03:29:30;101358.00;;;-4.47;67.58
24558;BME280;12726;49.148;8.582;2024-01-10T03:32:16;101361.78;;;-4.51;67.40
24558;BME280;12726;49.148;8.582;2024-01-10T03:35:02;101362.81;;;-4.54;68.19
24558;BME280;12726;49.148;8.582;2024-01-10T03:37:48;101366.41;;;-4.55;67.63
24558;BME280;12726;49.148;8.582;2024-01-10T03:40:34;101364.78;;;-4.57;68.38
24558;BME280;12726;49.148;8.582;2024-01-10T03:43:19;101362.25;;;-4.59;68.20
24558;BME280;12726;49.148;8.582;2024-01-10T03:46:04;101365.06;;;-4.62;68.01
24558;BME280;12726;49.148;8.582;2024-01-10T03:48:52;101357.34;;;-4.65;68.66
24558;BME280;12726;49.148;8.582;2024-01-10T03:51:37;101364.41;;;-4.65;68.44
24558;BME280;12726;49.148;8.582;2024-01-10T03:54:24;101362.78;;;-4.68;68.80
24558;BME280;12726;49.148;8.582;2024-01-10T03:57:09;101364.69;;;-4.70;68.03
24558;BME280;12726;49.148;8.582;2024-01-10T03:59:55;101359.31;;;-4.68;68.70
24558;BME280;12726;49.148;8.582;2024-01-10T04:02:40;101352.56;;;-4.72;68.11
24558;BME280;12726;49.148;8.582;2024-01-10T04:05:26;101355.47;;;-4.77;69.27
24558;BME280;12726;49.148;8.582;2024-01-10T04:08:12;101358.28;;;-4.80;68.88
24558;BME280;12726;49.148;8.582;2024-01-10T04:10:57;101359.41;;;-4.84;69.50
24558;BME280;12726;49.148;8.582;2024-01-10T04:13:43;101367.44;;;-4.87;69.58
24558;BME280;12726;49.148;8.582;2024-01-10T04:16:28;101361.53;;;-4.91;70.32
24558;BME280;12726;49.148;8.582;2024-01-10T04:19:17;101361.63;;;-4.92;70.17
24558;BME280;12726;49.148;8.582;2024-01-10T04:22:03;101367.91;;;-4.95;70.45
24558;BME280;12726;49.148;8.582;2024-01-10T04:24:49;101367.25;;;-4.98;71.29
24558;BME280;12726;49.148;8.582;2024-01-10T04:27:37;101360.38;;;-5.01;70.94
24558;BME280;12726;49.148;8.582;2024-01-10T04:30:23;101372.75;;;-5.03;71.60
24558;BME280;12726;49.148;8.582;2024-01-10T04:33:08;101368.53;;;-5.05;71.34
24558;BME280;12726;49.148;8.582;2024-01-10T04:35:54;101364.22;;;-5.06;72.33
24558;BME280;12726;49.148;8.582;2024-01-10T04:38:40;101377.44;;;-5.08;73.06
24558;BME280;12726;49.148;8.582;2024-01-10T04:41:26;101367.84;;;-5.09;72.93
24558;BME280;12726;49.148;8.582;2024-01-10T04:44:11;101379.22;;;-5.08;73.06
24558;BME280;12726;49.148;8.582;2024-01-10T04:46:57;101368.63;;;-5.07;72.46
24558;BME280;12726;49.148;8.582;2024-01-10T04:49:42;101378.00;;;-5.03;72.25
24558;BME280;12726;49.148;8.582;2024-01-10T04:52:27;101377.00;;;-5.00;71.00
24558;BME280;12726;49.148;8.582;2024-01-10T04:55:14;101372.59;;;-5.00;71.01
24558;BME280;12726;49.148;8.582;2024-01-10T04:58:00;101381.03;;;-4.95;70.84
24558;BME280;12726;49.148;8.582;2024-01-10T05:00:45;101367.81;;;-4.93;71.93
24558;BME280;12726;49.148;8.582;2024-01-10T05:03:31;101370.34;;;-4.92;71.64
24558;BME280;12726;49.148;8.582;2024-01-10T05:06:16;101367.66;;;-4.90;71.49
24558;BME280;12726;49.148;8.582;2024-01-10T05:09:01;101374.56;;;-4.89;72.11
24558;BME280;12726;49.148;8.582;2024-01-10T05:11:49;101371.84;;;-4.88;71.93
24558;BME280;12726;49.148;8.582;2024-01-10T05:14:36;101364.66;;;-4.84;71.88
24558;BME280;12726;49.148;8.582;2024-01-10T05:17:21;101371.59;;;-4.83;72.49
24558;BME280;12726;49.148;8.582;2024-01-10T05:20:07;101373.28;;;-4.82;72.12
24558;BME280;12726;49.148;8.582;2024-01-10T05:22:56;101374.88;;;-4.80;72.40
24558;BME280;12726;49.148;8.582;2024-01-10T05:25:42;101372.16;;;-4.78;71.79
24558;BME280;12726;49.148;8.582;2024-01-10T05:28:28;101365.78;;;-4.74;71.36
24558;BME280;12726;49.148;8.582;2024-01-10T05:31:14;101366.53;;;-4.72;71.18
24558;BME280;12726;49.148;8.582;2024-01-10T05:33:59;101364.69;;;-4.70;71.00
24558;BME280;12726;49.148;8.582;2024-01-10T05:36:44;101363.75;;;-4.69;71.40
24558;BME280;12726;49.148;8.582;2024-01-10T05:39:30;101367.19;;;-4.68;71.23
24558;BME280;12726;49.148;8.582;2024-01-10T05:42:15;101372.34;;;-4.67;71.60
24558;BME280;12726;49.148;8.582;2024-01-10T05:45:01;101364.41;;;-4.65;71.68
24558;BME280;12726;49.148;8.582;2024-01-10T05:47:47;101366.00;;;-4.63;72.06
24558;BME280;12726;49.148;8.582;2024-01-10T05:50:32;101367.69;;;-4.62;72.13
24558;BME280;12726;49.148;8.582;2024-01-10T05:53:18;101363.38;;;-4.63;72.21
24558;BME280;12726;49.148;8.582;2024-01-10T05:56:05;101373.88;;;-4.63;72.02
24558;BME280;12726;49.148;8.582;2024-01-10T05:58:51;101372.94;;;-4.62;71.99
24558;BME280;12726;49.148;8.582;2024-01-10T06:01:37;101380.91;;;-4.63;72.79
24558;BME280;12726;49.148;8.582;2024-01-10T06:04:23;101380.06;;;-4.64;72.40
24558;BME280;12726;49.148;8.582;2024-01-10T06:07:08;101367.03;;;-4.65;72.62
24558;BME280;12726;49.148;8.582;2024-01-10T06:09:54;101378.38;;;-4.65;72.55
24558;BME280;12726;49.148;8.582;2024-01-10T06:12:39;101384.66;;;-4.67;72.07
24558;BME280;12726;49.148;8.582;2024-01-10T06:15:25;101376.88;;;-4.69;72.75
24558;BME280;12726;49.148;8.582;2024-01-10T06:18:12;101378.66;;;-4.69;72.48
24558;BME280;12726;49.148;8.582;2024-01-10T06:20:57;101379.69;;;-4.72;72.18
24558;BME280;12726;49.148;8.582;2024-01-10T06:23:42;101372.72;;;-4.73;72.68
24558;BME280;12726;49.148;8.582;2024-01-10T06:26:28;101378.91;;;-4.74;73.23
24558;BME280;12726;49.148;8.582;2024-01-10T06:29:16;101374.72;;;-4.77;73.39
24558;BME280;12726;49.148;8.582;2024-01-10T06:32:04;101384.38;;;-4.77;73.17
24558;BME280;12726;49.148;8.582;2024-01-10T06:34:51;101383.44;;;-4.76;73.38
24558;BME280;12726;49.148;8.582;2024-01-10T06:37:37;101377.34;;;-4.77;73.72
24558;BME280;12726;49.148;8.582;2024-01-10T06:40:23;101383.44;;;-4.76;73.84
24558;BME280;12726;49.148;8.582;2024-01-10T06:43:09;101379.19;;;-4.79;73.67
24558;BME280;12726;49.148;8.582;2024-01-10T06:45:55;101377.41;;;-4.78;73.20
24558;BME280;12726;49.148;8.582;2024-01-10T06:48:40;101380.13;;;-4.80;73.59
24558;BME280;12726;49.148;8.582;2024-01-10T06:51:27;101380.97;;;-4.79;74.40
24558;BME280;12726;49.148;8.582;2024-01-10T06:54:12;101379.28;;;-4.80;74.11
24558;BME280;12726;49.148;8.582;2024-01-10T06:56:58;101373.28;;;-4.82;74.40
24558;BME280;12726;49.148;8.582;2024-01-10T06:59:43;101373.38;;;-4.84;74.22
24558;BME280;12726;49.148;8.582;2024-01-10T07:02:29;101376.19;;;-4.87;75.12
24558;BME280;12726;49.148;8.582;2024-01-10T07:05:16;101379.66;;;-4.86;74.71
24558;BME280;12726;49.148;8.582;2024-01-10T07:08:03;101384.91;;;-4.86;74.89
24558;BME280;12726;49.148;8.582;2024-01-10T07:10:48;101384.06;;;-4.87;75.48
24558;BME280;12726;49.148;8.582;2024-01-10T07:13:34;101391.94;;;-4.87;75.55
24558;BME280;12726;49.148;8.582;2024-01-10T07:16:19;101393.72;;;-4.87;75.12
24558;BME280;12726;49.148;8.582;2024-01-10T07:19:05;101387.63;;;-4.88;75.53
24558;BME280;12726;49.148;8.582;2024-01-10T07:21:50;101402.44;;;-4.87;76.07
24558;BME280;12726;49.148;8.582;2024-01-10T07:24:36;101405.06;;;-4.87;76.11
24558;BME280;12726;49.148;8.582;2024-01-10T07:27:22;101407.53;;;-4.84;75.94
24558;BME280;12726;49.148;8.582;2024-01-10T07:30:09;101405.56;;;-4.80;75.88
24558;BME280;12726;49.148;8.582;2024-01-10T07:32:57;101405.38;;;-4.77;75.18
24558;BME280;12726;49.148;8.582;2024-01-10T07:35:42;101412.13;;;-4.73;75.35
24558;BME280;12726;49.148;8.582;2024-01-10T07:38:28;101409.13;;;-4.67;74.97
24558;BME280;12726;49.148;8.582;2024-01-10T07:41:15;101408.78;;;-4.61;75.10
24558;BME280;12726;49.148;8.582;2024-01-10T07:44:00;101411.78;;;-4.53;74.14
24558;BME280;12726;49.148;8.582;2024-01-10T07:46:45;101425.25;;;-4.43;74.08
24558;BME280;12726;49.148;8.582;2024-01-10T07:49:30;101434.06;;;-4.30;73.58
24558;BME280;12726;49.148;8.582;2024-01-10T07:52:16;101427.59;;;-4.24;73.68
24558;BME280;12726;49.148;8.582;2024-01-10T07:55:02;101432.69;;;-4.21;73.41
24558;BME280;12726;49.148;8.582;2024-01-10T07:57:50;101435.09;;;-4.18;73.31
24558;BME280;12726;49.148;8.582;2024-01-10T08:00:35;101430.69;;;-4.18;73.47
24558;BME280;12726;49.148;8.582;2024-01-10T08:03:21;101427.97;;;-4.16;73.27
24558;BME280;12726;49.148;8.582;2024-01-10T08:06:06;101430.44;;;-4.13;73.55
24558;BME280;12726;49.148;8.582;2024-01-10T08:08:52;101424.25;;;-4.12;73.29
24558;BME280;12726;49.148;8.582;2024-01-10T08:11:38;101425.91;;;-4.11;73.73
24558;BME280;12726;49.148;8.582;2024-01-10T08:14:25;101432.88;;;-4.10;73.61
24558;BME280;12726;49.148;8.582;2024-01-10T08:17:10;101428.28;;;-4.07;72.95
24558;BME280;12726;49.148;8.582;2024-01-10T08:19:55;101429.69;;;-4.01;73.33
24558;BME280;12726;49.148;8.582;2024-01-10T08:22:41;101433.25;;;-3.88;73.45
24558;BME280;12726;49.148;8.582;2024-01-10T08:25:28;101436.06;;;-3.77;72.87
24558;BME280;12726;49.148;8.582;2024-01-10T08:28:13;101429.25;;;-3.67;72.37
24558;BME280;12726;49.148;8.582;2024-01-10T08:31:00;101436.59;;;-3.58;71.90
24558;BME280;12726;49.148;8.582;2024-01-10T08:33:45;101436.19;;;-3.51;71.30
24558;BME280;12726;49.148;8.582;2024-01-10T08:36:31;101430.16;;;-3.39;71.14
24558;BME280;12726;49.148;8.582;2024-01-10T08:39:16;101438.94;;;-3.26;70.91
24558;BME280;12726;49.148;8.582;2024-01-10T08:42:02;101437.31;;;-3.14;70.29
24558;BME280;12726;49.148;8.582;2024-01-10T08:44:47;101432.94;;;-3.01;69.66
24558;BME280;12726;49.148;8.582;2024-01-10T08:47:37;101426.94;;;-2.91;68.69
24558;BME280;12726;49.148;8.582;2024-01-10T08:50:22;101427.84;;;-2.78;68.23
24558;BME280;12726;49.148;8.582;2024-01-10T08:53:09;101434.53;;;-2.59;67.87
24558;BME280;12726;49.148;8.582;2024-01-10T08:55:54;101435.91;;;-2.41;67.26
24558;BME280;12726;49.148;8.582;2024-01-10T08:58:40;101439.59;;;-2.18;66.30
24558;BME280;12726;49.148;8.582;2024-01-10T09:01:25;101439.41;;;-2.03;65.25
24558;BME280;12726;49.148;8.582;2024-01-10T09:04:12;101441.47;;;-1.70;64.63
24558;BME280;12726;49.148;8.582;2024-01-10T09:06:57;101441.88;;;-0.44;60.32
24558;BME280;12726;49.148;8.582;2024-01-10T09:09:42;101435.31;;;1.05;57.37
24558;BME280;12726;49.148;8.582;2024-01-10T09:12:28;101430.22;;;2.26;52.53
24558;BME280;12726;49.148;8.582;2024-01-10T09:15:13;101431.53;;;3.20;46.89
24558;BME280;12726;49.148;8.582;2024-01-10T09:17:59;101434.63;;;4.47;45.10
24558;BME280;12726;49.148;8.582;2024-01-10T09:20:46;101429.03;;;5.57;42.02
24558;BME280;12726;49.148;8.582;2024-01-10T09:23:31;101432.69;;;5.56;40.29
24558;BME280;12726;49.148;8.582;2024-01-10T09:26:21;101431.72;;;6.34;39.09
24558;BME280;12726;49.148;8.582;2024-01-10T09:29:06;101435.16;;;7.02;37.63
24558;BME280;12726;49.148;8.582;2024-01-10T09:31:51;101431.09;;;6.40;36.95
24558;BME280;12726;49.148;8.582;2024-01-10T09:34:36;101439.06;;;7.24;35.62
24558;BME280;12726;49.148;8.582;2024-01-10T09:37:23;101445.16;;;6.42;35.61
24558;BME280;12726;49.148;8.582;2024-01-10T09:40:10;101441.31;;;5.67;37.53
24558;BME280;12726;49.148;8.582;2024-01-10T09:42:57;101444.41;;;5.37;37.87
24558;BME280;12726;49.148;8.582;2024-01-10T09:45:43;101439.63;;;5.66;37.65
24558;BME280;12726;49.148;8.582;2024-01-10T09:48:31;101443.59;;;5.62;37.41
24558;BME280;12726;49.148;8.582;2024-01-10T09:51:17;101448.56;;;5.57;37.46
24558;BME280;12726;49.148;8.582;2024-01-10T09:54:03;101449.53;;;6.17;36.19
24558;BME280;12726;49.148;8.582;2024-01-10T09:56:49;101440.34;;;6.96;36.46
24558;BME280;12726;49.148;8.582;2024-01-10T09:59:35;101440.31;;;7.04;34.68
24558;BME280;12726;49.148;8.582;2024-01-10T10:02:20;101442.50;;;7.00;34.80
24558;BME280;12726;49.148;8.582;2024-01-10T10:05:09;101447.97;;;6.41;35.30
24558;BME280;12726;49.148;8.582;2024-01-10T10:07:58;101442.34;;;5.92;36.76
24558;BME280;12726;49.148;8.582;2024-01-10T10:10:44;101445.53;;;6.21;36.16
24558;BME280;12726;49.148;8.582;2024-01-10T10:13:30;101445.38;;;5.97;37.00
24558;BME280;12726;49.148;8.582;2024-01-10T10:16:23;101450.63;;;6.07;36.00
24558;BME280;12726;49.148;8.582;2024-01-10T10:19:09;101450.28;;;6.36;36.48
24558;BME280;12726;49.148;8.582;2024-01-10T10:22:07;101438.56;;;6.71;35.11
24558;BME280;12726;49.148;8.582;2024-01-10T10:24:53;101443.25;;;7.43;34.45
24558;BME280;12726;49.148;8.582;2024-01-10T10:27:40;101444.09;;;7.60;33.85
24558;BME280;12726;49.148;8.582;2024-01-10T10:30:26;101447.75;;;8.54;32.77
24558;BME280;12726;49.148;8.582;2024-01-10T10:33:11;101441.72;;;8.91;32.22
24558;BME280;12726;49.148;8.582;2024-01-10T10:35:56;101431.94;;;9.67;31.59
24558;BME280;12726;49.148;8.582;2024-01-10T10:38:42;101438.47;;;10.25;30.45
24558;BME280;12726;49.148;8.582;2024-01-10T10:41:30;101426.38;;;10.79;29.67
24558;BME280;12726;49.148;8.582;2024-01-10T10:44:18;101425.91;;;10.46;29.40
24558;BME280;12726;49.148;8.582;2024-01-10T10:47:06;101432.53;;;10.44;29.01
24558;BME280;12726;49.148;8.582;2024-01-10T10:49:55;101427.78;;;9.19;30.37
24558;BME280;12726;49.148;8.582;2024-01-10T10:52:45;101427.13;;;9.62;29.94
24558;BME280;12726;49.148;8.582;2024-01-10T10:55:32;101426.69;;;8.74;31.23
24558;BME280;12726;49.148;8.582;2024-01-10T10:58:19;101433.47;;;8.07;32.14
24558;BME280;12726;49.148;8.582;2024-01-10T11:01:07;101420.25;;;7.97;32.70
24558;BME280;12726;49.148;8.582;2024-01-10T11:03:53;101429.56;;;8.34;32.74
24558;BME280;12726;49.148;8.582;2024-01-10T11:06:41;101427.19;;;8.39;32.69
24558;BME280;12726;49.148;8.582;2024-01-10T11:09:26;101426.25;;;8.07;32.90
24558;BME280;12726;49.148;8.582;2024-01-10T11:12:26;101425.31;;;7.68;32.98
24558;BME280;12726;49.148;8.582;2024-01-10T11:15:24;101419.91;;;8.00;33.45
24558;BME280;12726;49.148;8.582;2024-01-10T11:18:32;101422.72;;;8.70;32.26
24558;BME280;12726;49.148;8.582;2024-01-10T11:21:32;101417.84;;;10.17;30.87
24558;BME280;12726;49.148;8.582;2024-01-10T11:24:22;101419.09;;;10.29;30.31
24558;BME280;12726;49.148;8.582;2024-01-10T11:27:11;101417.81;;;10.02;30.15
24558;BME280;12726;49.148;8.582;2024-01-10T11:29:56;101432.34;;;9.78;30.15
24558;BME280;12726;49.148;8.582;2024-01-10T11:32:43;101421.56;;;10.45;29.67
24558;BME280;12726;49.148;8.582;2024-01-10T11:35:30;101426.97;;;12.09;28.11
24558;BME280;12726;49.148;8.582;2024-01-10T11:38:16;101429.78;;;11.09;28.40
24558;BME280;12726;49.148;8.582;2024-01-10T11:41:01;101424.78;;;12.60;26.84
24558;BME280;12726;49.148;8.582;2024-01-10T11:47:03;101419.63;;;10.90;28.23
24558;BME280;12726;49.148;8.582;2024-01-10T11:49:56;101413.88;;;10.93;27.79
24558;BME280;12726;49.148;8.582;2024-01-10T11:52:43;101430.13;;;10.34;28.58
24558;BME280;12726;49.148;8.582;2024-01-10T11:55:47;101415.47;;;11.51;27.90
24558;BME280;12726;49.148;8.582;2024-01-10T11:58:32;101412.91;;;10.06;29.27
24558;BME280;12726;49.148;8.582;2024-01-10T12:01:18;101414.97;;;9.66;29.93
24558;BME280;12726;49.148;8.582;2024-01-10T12:04:04;101412.72;;;9.93;30.08
24558;BME280;12726;49.148;8.582;2024-01-10T12:06:50;101410.84;;;9.78;29.96
24558;BME280;12726;49.148;8.582;2024-01-10T12:09:37;101406.75;;;8.69;31.18
24558;BME280;12726;49.148;8.582;2024-01-10T12:12:23;101396.06;;;9.74;30.18
24558;BME280;12726;49.148;8.582;2024-01-10T12:15:09;101393.91;;;9.32;31.13
24558;BME280;12726;49.148;8.582;2024-01-10T12:17:54;101395.91;;;9.91;30.46
24558;BME280;12726;49.148;8.582;2024-01-10T12:20:40;101404.75;;;10.73;29.68
24558;BME280;12726;49.148;8.582;2024-01-10T12:23:28;101391.88;;;10.24;29.64
24558;BME280;12726;49.148;8.582;2024-01-10T12:26:18;101385.00;;;9.55;30.33
24558;BME280;12726;49.148;8.582;2024-01-10T12:29:04;101389.97;;;9.95;29.94
24558;BME280;12726;49.148;8.582;2024-01-10T12:31:50;101387.69;;;10.87;29.23
24558;BME280;12726;49.148;8.582;2024-01-10T12:34:38;101386.16;;;10.99;28.88
24558;BME280;12726;49.148;8.582;2024-01-10T12:37:24;101386.91;;;11.78;28.18
24558;BME280;12726;49.148;8.582;2024-01-10T12:40:09;101393.31;;;12.05;27.29
24558;BME280;12726;49.148;8.582;2024-01-10T12:43:03;101390.88;;;11.61;27.67
24558;BME280;12726;49.148;8.582;2024-01-10T12:45:48;101398.75;;;9.74;29.68
24558;BME280;12726;49.148;8.582;2024-01-10T12:48:34;101390.81;;;8.98;30.85
24558;BME280;12726;49.148;8.582;2024-01-10T12:51:21;101391.72;;;8.90;31.04
24558;BME280;12726;49.148;8.582;2024-01-10T12:54:07;101394.19;;;9.60;31.08
24558;BME280;12726;49.148;8.582;2024-01-10T12:56:52;101391.47;;;9.46;31.12
24558;BME280;12726;49.148;8.582;2024-01-10T12:59:39;101386.84;;;8.94;31.92
24558;BME280;12726;49.148;8.582;2024-01-10T13:02:24;101402.44;;;8.12;33.13
24558;BME280;12726;49.148;8.582;2024-01-10T13:05:09;101391.84;;;7.23;35.03
24558;BME280;12726;49.148;8.582;2024-01-10T13:07:55;101387.81;;;7.19;34.92
24558;BME280;12726;49.148;8.582;2024-01-10T13:10:41;101382.25;;;6.96;35.71
24558;BME280;12726;49.148;8.582;2024-01-10T13:13:26;101376.13;;;6.04;36.94
24558;BME280;12726;49.148;8.582;2024-01-10T13:16:13;101376.63;;;6.07;37.07
24558;BME280;12726;49.148;8.582;2024-01-10T13:18:58;101374.47;;;5.85;38.00
24558;BME280;12726;49.148;8.582;2024-01-10T13:21:43;101379.09;;;5.31;38.79
24558;BME280;12726;49.148;8.582;2024-01-10T13:24:29;101377.44;;;4.95;39.16
24558;BME280;12726;49.148;8.582;2024-01-10T13:27:14;101386.88;;;4.71;40.31
24558;BME280;12726;49.148;8.582;2024-01-10T13:29:59;101381.25;;;4.20;41.18
24558;BME280;12726;49.148;8.582;2024-01-10T13:32:46;101383.84;;;4.12;41.93
24558;BME280;12726;49.148;8.582;2024-01-10T13:35:31;101382.09;;;3.93;42.27
24558;BME280;12726;49.148;8.582;2024-01-10T13:38:17;101391.41;;;3.70;42.66
24558;BME280;12726;49.148;8.582;2024-01-10T13:41:03;101400.72;;;3.46;43.30
24558;BME280;12726;49.148;8.582;2024-01-10T13:43:49;101399.03;;;3.36;44.18
24558;BME280;12726;49.148;8.582;2024-01-10T13:46:35;101394.28;;;3.01;45.44
24558;BME280;12726;49.148;8.582;2024-01-10T13:49:22;101395.59;;;2.47;46.74
24558;BME280;12726;49.148;8.582;2024-01-10T13:52:07;101390.75;;;2.22;47.52
24558;BME280;12726;49.148;8.582;2024-01-10T13:54:53;101399.41;;;2.14;47.64
24558;BME280;12726;49.148;8.582;2024-01-10T13:57:38;101397.16;;;2.10;48.56
24558;BME280;12726;49.148;8.582;2024-01-10T14:00:23;101384.59;;;2.12;48.30
24558;BME280;12726;49.148;8.582;2024-01-10T14:03:09;101381.34;;;2.08;48.75
24558;BME280;12726;49.148;8.582;2024-01-10T14:05:56;101392.56;;;2.12;48.63
24558;BME280;12726;49.148;8.582;2024-01-10T14:08:41;101396.06;;;2.12;49.14
24558;BME280;12726;49.148;8.582;2024-01-10T14:11:29;101400.97;;;2.17;49.07
24558;BME280;12726;49.148;8.582;2024-01-10T14:14:15;101398.72;;;2.22;49.34
24558;BME280;12726;49.148;8.582;2024-01-10T14:17:00;101404.88;;;2.22;49.01
24558;BME280;12726;49.148;8.582;2024-01-10T14:19:48;101410.47;;;2.19;49.29
24558;BME280;12726;49.148;8.582;2024-01-10T14:22:36;101409.16;;;2.04;49.50
24558;BME280;12726;49.148;8.582;2024-01-10T14:25:21;101422.50;;;1.93;49.82
24558;BME280;12726;49.148;8.582;2024-01-10T14:28:06;101410.69;;;1.76;50.79
24558;BME280;12726;49.148;8.582;2024-01-10T14:30:52;101412.97;;;1.60;51.28
24558;BME280;12726;49.148;8.582;2024-01-10T14:33:37;101412.88;;;1.50;51.80
24558;BME280;12726;49.148;8.582;2024-01-10T14:36:23;101404.41;;;1.36;52.36